sensor_id;sensor_type;location;lat;lon;timestamp;P1;durP1;ratioP1;P2;durP2;ratioP2
55989;SDS011;41875;55.806;38.082;2023-05-10T00:01:36;20.33;;;8.10;;
55989;SDS011;41875;55.806;38.082;2023-05-10T00:04:04;17.27;;;8.48;;
55989;SDS011;41875;55.806;38.082;2023-05-10T00:06:33;19.13;;;7.60;;
55989;SDS011;41875;55.806;38.082;2023-05-10T00:09:01;17.23;;;7.90;;
55989;SDS011;41875;55.806;38.082;2023-05-10T00:11:31;20.70;;;8.65;;
55989;SDS011;41875;55.806;38.082;2023-05-10T00:14:00;17.17;;;7.85;;
55989;SDS011;41875;55.806;38.082;2023-05-10T00:16:28;22.13;;;7.93;;
55989;SDS011;41875;55.806;38.082;2023-05-10T00:18:57;21.17;;;8.40;;
55989;SDS011;41875;55.806;38.082;2023-05-10T00:21:25;24.65;;;8.80;;
55989;SDS011;41875;55.806;38.082;2023-05-10T00:23:55;19.55;;;7.95;;
55989;SDS011;41875;55.806;38.082;2023-05-10T00:26:23;18.90;;;8.73;;
55989;SDS011;41875;55.806;38.082;2023-05-10T00:28:55;20.27;;;8.27;;
55989;SDS011;41875;55.806;38.082;2023-05-10T00:31:25;19.40;;;7.72;;
55989;SDS011;41875;55.806;38.082;2023-05-10T00:33:54;18.83;;;7.53;;
55989;SDS011;41875;55.806;38.082;2023-05-10T00:36:22;21.45;;;8.52;;
55989;SDS011;41875;55.806;38.082;2023-05-10T00:38:51;18.48;;;8.50;;
55989;SDS011;41875;55.806;38.082;2023-05-10T00:41:19;18.08;;;8.27;;
55989;SDS011;41875;55.806;38.082;2023-05-10T00:43:49;24.52;;;9.30;;
55989;SDS011;41875;55.806;38.082;2023-05-10T00:46:18;29.63;;;10.00;;
55989;SDS011;41875;55.806;38.082;2023-05-10T00:48:48;21.20;;;8.98;;
55989;SDS011;41875;55.806;38.082;2023-05-10T00:51:16;15.35;;;8.25;;
55989;SDS011;41875;55.806;38.082;2023-05-10T00:53:45;22.80;;;9.25;;
55989;SDS011;41875;55.806;38.082;2023-05-10T00:56:14;16.63;;;7.50;;
55989;SDS011;41875;55.806;38.082;2023-05-10T00:58:43;23.73;;;8.43;;
55989;SDS011;41875;55.806;38.082;2023-05-10T01:01:11;21.75;;;9.32;;
55989;SDS011;41875;55.806;38.082;2023-05-10T01:03:42;17.95;;;8.93;;
55989;SDS011;41875;55.806;38.082;2023-05-10T01:06:11;15.60;;;7.40;;
55989;SDS011;41875;55.806;38.082;2023-05-10T01:08:40;21.48;;;9.57;;
55989;SDS011;41875;55.806;38.082;2023-05-10T01:11:08;18.50;;;7.78;;
55989;SDS011;41875;55.806;38.082;2023-05-10T01:16:06;21.48;;;8.38;;
55989;SDS011;41875;55.806;38.082;2023-05-10T01:18:36;21.90;;;8.80;;
55989;SDS011;41875;55.806;38.082;2023-05-10T01:21:13;24.13;;;8.75;;
55989;SDS011;41875;55.806;38.082;2023-05-10T01:24:05;20.15;;;7.90;;
55989;SDS011;41875;55.806;38.082;2023-05-10T01:27:03;17.40;;;7.88;;
55989;SDS011;41875;55.806;38.082;2023-05-10T01:33:14;21.25;;;7.22;;
55989;SDS011;41875;55.806;38.082;2023-05-10T01:35:47;17.20;;;8.05;;
55989;SDS011;41875;55.806;38.082;2023-05-10T01:38:22;15.60;;;6.82;;
55989;SDS011;41875;55.806;38.082;2023-05-10T01:41:01;15.18;;;7.50;;
55989;SDS011;41875;55.806;38.082;2023-05-10T01:43:42;17.13;;;7.85;;
55989;SDS011;41875;55.806;38.082;2023-05-10T01:46:17;17.50;;;7.32;;
55989;SDS011;41875;55.806;38.082;2023-05-10T01:48:54;24.00;;;8.45;;
55989;SDS011;41875;55.806;38.082;2023-05-10T01:51:28;17.02;;;7.80;;
55989;SDS011;41875;55.806;38.082;2023-05-10T01:54:13;21.48;;;7.55;;
55989;SDS011;41875;55.806;38.082;2023-05-10T01:56:43;13.80;;;6.78;;
55989;SDS011;41875;55.806;38.082;2023-05-10T01:59:15;18.33;;;7.25;;
55989;SDS011;41875;55.806;38.082;2023-05-10T02:01:46;18.08;;;7.47;;
55989;SDS011;41875;55.806;38.082;2023-05-10T02:04:18;19.60;;;7.82;;
55989;SDS011;41875;55.806;38.082;2023-05-10T02:06:50;16.48;;;7.88;;
55989;SDS011;41875;55.806;38.082;2023-05-10T02:09:20;18.13;;;6.85;;
55989;SDS011;41875;55.806;38.082;2023-05-10T02:11:49;13.88;;;6.68;;
55989;SDS011;41875;55.806;38.082;2023-05-10T02:14:18;14.63;;;7.20;;
55989;SDS011;41875;55.806;38.082;2023-05-10T02:16:47;15.82;;;6.78;;
55989;SDS011;41875;55.806;38.082;2023-05-10T02:19:20;14.68;;;5.90;;
55989;SDS011;41875;55.806;38.082;2023-05-10T02:22:11;18.15;;;6.47;;
55989;SDS011;41875;55.806;38.082;2023-05-10T02:24:40;15.27;;;6.30;;
55989;SDS011;41875;55.806;38.082;2023-05-10T02:27:09;16.40;;;6.95;;
55989;SDS011;41875;55.806;38.082;2023-05-10T02:29:41;17.50;;;7.30;;
55989;SDS011;41875;55.806;38.082;2023-05-10T02:32:10;17.33;;;7.38;;
55989;SDS011;41875;55.806;38.082;2023-05-10T02:34:41;16.67;;;6.53;;
55989;SDS011;41875;55.806;38.082;2023-05-10T02:37:13;18.13;;;7.22;;
55989;SDS011;41875;55.806;38.082;2023-05-10T02:39:45;17.73;;;7.30;;
55989;SDS011;41875;55.806;38.082;2023-05-10T02:42:15;19.85;;;7.57;;
55989;SDS011;41875;55.806;38.082;2023-05-10T02:44:46;21.08;;;7.90;;
55989;SDS011;41875;55.806;38.082;2023-05-10T02:47:16;14.73;;;6.57;;
55989;SDS011;41875;55.806;38.082;2023-05-10T02:49:48;13.10;;;5.63;;
55989;SDS011;41875;55.806;38.082;2023-05-10T02:52:19;12.50;;;6.68;;
55989;SDS011;41875;55.806;38.082;2023-05-10T02:54:52;17.77;;;7.80;;
55989;SDS011;41875;55.806;38.082;2023-05-10T02:57:25;14.32;;;6.63;;
55989;SDS011;41875;55.806;38.082;2023-05-10T02:59:56;17.63;;;7.07;;
55989;SDS011;41875;55.806;38.082;2023-05-10T03:02:25;15.32;;;6.50;;
55989;SDS011;41875;55.806;38.082;2023-05-10T03:04:55;14.43;;;6.13;;
55989;SDS011;41875;55.806;38.082;2023-05-10T03:07:24;18.15;;;7.50;;
55989;SDS011;41875;55.806;38.082;2023-05-10T03:09:52;16.30;;;5.68;;
55989;SDS011;41875;55.806;38.082;2023-05-10T03:12:27;18.00;;;7.20;;
55989;SDS011;41875;55.806;38.082;2023-05-10T03:15:11;17.05;;;6.40;;
55989;SDS011;41875;55.806;38.082;2023-05-10T03:17:52;17.90;;;6.20;;
55989;SDS011;41875;55.806;38.082;2023-05-10T03:20:29;12.13;;;5.20;;
55989;SDS011;41875;55.806;38.082;2023-05-10T03:23:04;18.40;;;7.03;;
55989;SDS011;41875;55.806;38.082;2023-05-10T03:25:40;18.50;;;7.13;;
55989;SDS011;41875;55.806;38.082;2023-05-10T03:28:11;16.92;;;6.43;;
55989;SDS011;41875;55.806;38.082;2023-05-10T03:30:42;12.95;;;6.60;;
55989;SDS011;41875;55.806;38.082;2023-05-10T03:33:12;14.20;;;5.68;;
55989;SDS011;41875;55.806;38.082;2023-05-10T03:35:45;19.25;;;7.10;;
55989;SDS011;41875;55.806;38.082;2023-05-10T03:38:15;13.52;;;6.22;;
55989;SDS011;41875;55.806;38.082;2023-05-10T03:40:43;14.15;;;5.68;;
55989;SDS011;41875;55.806;38.082;2023-05-10T03:43:12;15.52;;;6.28;;
55989;SDS011;41875;55.806;38.082;2023-05-10T03:45:41;18.30;;;8.40;;
55989;SDS011;41875;55.806;38.082;2023-05-10T03:48:09;16.65;;;6.97;;
55989;SDS011;41875;55.806;38.082;2023-05-10T03:50:41;16.38;;;7.10;;
55989;SDS011;41875;55.806;38.082;2023-05-10T03:55:39;15.88;;;7.15;;
55989;SDS011;41875;55.806;38.082;2023-05-10T03:58:10;18.50;;;8.00;;
55989;SDS011;41875;55.806;38.082;2023-05-10T04:00:39;16.52;;;6.90;;
55989;SDS011;41875;55.806;38.082;2023-05-10T04:03:11;17.92;;;6.80;;
55989;SDS011;41875;55.806;38.082;2023-05-10T04:05:40;16.05;;;7.35;;
55989;SDS011;41875;55.806;38.082;2023-05-10T04:08:08;13.85;;;7.05;;
55989;SDS011;41875;55.806;38.082;2023-05-10T04:10:38;19.13;;;7.57;;
55989;SDS011;41875;55.806;38.082;2023-05-10T04:13:07;18.60;;;7.35;;
55989;SDS011;41875;55.806;38.082;2023-05-10T04:15:35;15.00;;;6.15;;
55989;SDS011;41875;55.806;38.082;2023-05-10T04:18:04;18.10;;;7.22;;
55989;SDS011;41875;55.806;38.082;2023-05-10T04:20:34;12.80;;;6.32;;
55989;SDS011;41875;55.806;38.082;2023-05-10T04:23:03;16.88;;;6.35;;
55989;SDS011;41875;55.806;38.082;2023-05-10T04:25:34;19.85;;;7.80;;
55989;SDS011;41875;55.806;38.082;2023-05-10T04:28:03;13.75;;;6.35;;
55989;SDS011;41875;55.806;38.082;2023-05-10T04:30:32;18.20;;;7.80;;
55989;SDS011;41875;55.806;38.082;2023-05-10T04:33:00;20.08;;;7.82;;
55989;SDS011;41875;55.806;38.082;2023-05-10T04:35:29;23.38;;;7.20;;
55989;SDS011;41875;55.806;38.082;2023-05-10T04:37:57;14.52;;;6.30;;
55989;SDS011;41875;55.806;38.082;2023-05-10T04:40:26;23.95;;;8.23;;
55989;SDS011;41875;55.806;38.082;2023-05-10T04:42:55;19.73;;;8.02;;
55989;SDS011;41875;55.806;38.082;2023-05-10T04:45:24;20.15;;;7.95;;
55989;SDS011;41875;55.806;38.082;2023-05-10T04:47:52;21.83;;;7.20;;
55989;SDS011;41875;55.806;38.082;2023-05-10T04:50:21;24.52;;;6.63;;
55989;SDS011;41875;55.806;38.082;2023-05-10T04:52:49;15.52;;;6.43;;
55989;SDS011;41875;55.806;38.082;2023-05-10T04:55:19;19.70;;;7.18;;
55989;SDS011;41875;55.806;38.082;2023-05-10T04:57:47;18.95;;;6.38;;
55989;SDS011;41875;55.806;38.082;2023-05-10T05:00:18;17.45;;;6.95;;
55989;SDS011;41875;55.806;38.082;2023-05-10T05:02:47;14.90;;;6.45;;
55989;SDS011;41875;55.806;38.082;2023-05-10T05:05:16;14.05;;;5.72;;
55989;SDS011;41875;55.806;38.082;2023-05-10T05:07:44;13.18;;;5.25;;
55989;SDS011;41875;55.806;38.082;2023-05-10T05:10:13;14.73;;;4.80;;
55989;SDS011;41875;55.806;38.082;2023-05-10T05:12:45;15.02;;;5.15;;
55989;SDS011;41875;55.806;38.082;2023-05-10T05:15:14;12.57;;;5.45;;
55989;SDS011;41875;55.806;38.082;2023-05-10T05:17:44;17.65;;;3.97;;
55989;SDS011;41875;55.806;38.082;2023-05-10T05:20:13;10.57;;;4.47;;
55989;SDS011;41875;55.806;38.082;2023-05-10T05:22:42;9.10;;;3.20;;
55989;SDS011;41875;55.806;38.082;2023-05-10T05:25:11;8.93;;;3.35;;
55989;SDS011;41875;55.806;38.082;2023-05-10T05:27:39;10.77;;;3.88;;
55989;SDS011;41875;55.806;38.082;2023-05-10T05:30:08;12.63;;;3.38;;
55989;SDS011;41875;55.806;38.082;2023-05-10T05:32:37;9.52;;;3.83;;
55989;SDS011;41875;55.806;38.082;2023-05-10T05:35:08;9.05;;;3.30;;
55989;SDS011;41875;55.806;38.082;2023-05-10T05:37:36;10.50;;;2.90;;
55989;SDS011;41875;55.806;38.082;2023-05-10T05:40:05;10.02;;;3.47;;
55989;SDS011;41875;55.806;38.082;2023-05-10T05:42:34;7.78;;;3.40;;
55989;SDS011;41875;55.806;38.082;2023-05-10T05:45:03;7.53;;;3.30;;
55989;SDS011;41875;55.806;38.082;2023-05-10T05:47:32;7.05;;;3.10;;
55989;SDS011;41875;55.806;38.082;2023-05-10T05:52:30;7.03;;;3.30;;
55989;SDS011;41875;55.806;38.082;2023-05-10T05:54:59;7.85;;;3.55;;
55989;SDS011;41875;55.806;38.082;2023-05-10T05:57:29;7.70;;;3.30;;
55989;SDS011;41875;55.806;38.082;2023-05-10T05:59:58;10.05;;;3.03;;
55989;SDS011;41875;55.806;38.082;2023-05-10T06:02:26;9.52;;;3.00;;
55989;SDS011;41875;55.806;38.082;2023-05-10T06:04:55;8.43;;;2.55;;
55989;SDS011;41875;55.806;38.082;2023-05-10T06:07:24;9.70;;;2.60;;
55989;SDS011;41875;55.806;38.082;2023-05-10T06:09:53;7.07;;;2.17;;
55989;SDS011;41875;55.806;38.082;2023-05-10T06:12:22;6.53;;;2.15;;
55989;SDS011;41875;55.806;38.082;2023-05-10T06:14:50;7.55;;;2.50;;
55989;SDS011;41875;55.806;38.082;2023-05-10T06:17:19;4.28;;;1.60;;
55989;SDS011;41875;55.806;38.082;2023-05-10T06:22:16;11.45;;;2.42;;
55989;SDS011;41875;55.806;38.082;2023-05-10T06:24:45;6.00;;;2.15;;
55989;SDS011;41875;55.806;38.082;2023-05-10T06:27:15;9.93;;;2.25;;
55989;SDS011;41875;55.806;38.082;2023-05-10T06:29:43;4.50;;;1.75;;
55989;SDS011;41875;55.806;38.082;2023-05-10T06:32:12;6.68;;;2.08;;
55989;SDS011;41875;55.806;38.082;2023-05-10T06:34:40;8.13;;;2.80;;
55989;SDS011;41875;55.806;38.082;2023-05-10T06:37:10;5.63;;;1.98;;
55989;SDS011;41875;55.806;38.082;2023-05-10T06:39:38;5.88;;;1.95;;
55989;SDS011;41875;55.806;38.082;2023-05-10T06:42:07;5.53;;;1.98;;
55989;SDS011;41875;55.806;38.082;2023-05-10T06:44:36;8.20;;;2.53;;
55989;SDS011;41875;55.806;38.082;2023-05-10T06:47:05;5.55;;;2.00;;
55989;SDS011;41875;55.806;38.082;2023-05-10T06:49:33;10.70;;;2.33;;
55989;SDS011;41875;55.806;38.082;2023-05-10T06:52:02;5.90;;;2.47;;
55989;SDS011;41875;55.806;38.082;2023-05-10T06:54:30;3.40;;;1.58;;
55989;SDS011;41875;55.806;38.082;2023-05-10T06:56:59;4.47;;;1.55;;
55989;SDS011;41875;55.806;38.082;2023-05-10T06:59:34;6.70;;;2.28;;
55989;SDS011;41875;55.806;38.082;2023-05-10T07:02:04;4.30;;;1.98;;
55989;SDS011;41875;55.806;38.082;2023-05-10T07:04:33;5.05;;;2.03;;
55989;SDS011;41875;55.806;38.082;2023-05-10T07:07:02;5.25;;;2.00;;
55989;SDS011;41875;55.806;38.082;2023-05-10T07:09:30;5.55;;;1.95;;
55989;SDS011;41875;55.806;38.082;2023-05-10T07:11:58;3.85;;;2.05;;
55989;SDS011;41875;55.806;38.082;2023-05-10T07:14:28;9.13;;;2.63;;
55989;SDS011;41875;55.806;38.082;2023-05-10T07:16:56;6.55;;;2.40;;
55989;SDS011;41875;55.806;38.082;2023-05-10T07:19:26;9.98;;;2.60;;
55989;SDS011;41875;55.806;38.082;2023-05-10T07:21:56;7.47;;;2.20;;
55989;SDS011;41875;55.806;38.082;2023-05-10T07:24:24;4.70;;;1.83;;
55989;SDS011;41875;55.806;38.082;2023-05-10T07:26:53;5.00;;;1.58;;
55989;SDS011;41875;55.806;38.082;2023-05-10T07:29:21;5.85;;;1.83;;
55989;SDS011;41875;55.806;38.082;2023-05-10T07:31:49;4.28;;;2.00;;
55989;SDS011;41875;55.806;38.082;2023-05-10T07:34:18;4.30;;;1.60;;
55989;SDS011;41875;55.806;38.082;2023-05-10T07:36:48;6.10;;;1.70;;
55989;SDS011;41875;55.806;38.082;2023-05-10T07:39:16;5.88;;;1.65;;
55989;SDS011;41875;55.806;38.082;2023-05-10T07:41:53;5.93;;;1.80;;
55989;SDS011;41875;55.806;38.082;2023-05-10T07:46:50;3.97;;;1.60;;
55989;SDS011;41875;55.806;38.082;2023-05-10T07:49:18;9.23;;;1.92;;
55989;SDS011;41875;55.806;38.082;2023-05-10T07:51:48;3.50;;;1.42;;
55989;SDS011;41875;55.806;38.082;2023-05-10T07:54:17;4.35;;;1.95;;
55989;SDS011;41875;55.806;38.082;2023-05-10T07:59:14;9.50;;;2.03;;
55989;SDS011;41875;55.806;38.082;2023-05-10T08:01:44;4.97;;;2.00;;
55989;SDS011;41875;55.806;38.082;2023-05-10T08:06:41;6.95;;;2.72;;
55989;SDS011;41875;55.806;38.082;2023-05-10T08:09:11;6.85;;;2.00;;
55989;SDS011;41875;55.806;38.082;2023-05-10T08:11:40;5.53;;;1.75;;
55989;SDS011;41875;55.806;38.082;2023-05-10T08:14:08;6.35;;;1.80;;
55989;SDS011;41875;55.806;38.082;2023-05-10T08:16:36;8.85;;;2.50;;
55989;SDS011;41875;55.806;38.082;2023-05-10T08:19:05;5.70;;;1.95;;
55989;SDS011;41875;55.806;38.082;2023-05-10T08:21:33;11.98;;;1.27;;
55989;SDS011;41875;55.806;38.082;2023-05-10T08:24:02;3.08;;;1.10;;
55989;SDS011;41875;55.806;38.082;2023-05-10T08:26:33;2.92;;;1.38;;
55989;SDS011;41875;55.806;38.082;2023-05-10T08:29:01;5.88;;;1.30;;
55989;SDS011;41875;55.806;38.082;2023-05-10T08:31:30;2.47;;;1.20;;
55989;SDS011;41875;55.806;38.082;2023-05-10T08:33:59;4.45;;;1.10;;
55989;SDS011;41875;55.806;38.082;2023-05-10T08:36:27;2.45;;;1.30;;
55989;SDS011;41875;55.806;38.082;2023-05-10T08:38:56;4.40;;;1.58;;
55989;SDS011;41875;55.806;38.082;2023-05-10T08:41:25;4.85;;;1.40;;
55989;SDS011;41875;55.806;38.082;2023-05-10T08:43:55;3.00;;;1.35;;
55989;SDS011;41875;55.806;38.082;2023-05-10T08:46:23;6.78;;;1.58;;
55989;SDS011;41875;55.806;38.082;2023-05-10T08:48:52;5.70;;;1.45;;
55989;SDS011;41875;55.806;38.082;2023-05-10T08:51:23;3.00;;;1.48;;
55989;SDS011;41875;55.806;38.082;2023-05-10T08:53:53;2.80;;;1.40;;
55989;SDS011;41875;55.806;38.082;2023-05-10T08:56:22;4.25;;;1.50;;
55989;SDS011;41875;55.806;38.082;2023-05-10T08:58:51;4.88;;;1.45;;
55989;SDS011;41875;55.806;38.082;2023-05-10T09:01:21;2.85;;;1.48;;
55989;SDS011;41875;55.806;38.082;2023-05-10T09:03:51;3.92;;;1.38;;
55989;SDS011;41875;55.806;38.082;2023-05-10T09:06:20;3.17;;;1.52;;
55989;SDS011;41875;55.806;38.082;2023-05-10T09:11:17;2.83;;;1.20;;
55989;SDS011;41875;55.806;38.082;2023-05-10T09:13:48;3.63;;;1.33;;
55989;SDS011;41875;55.806;38.082;2023-05-10T09:16:18;2.97;;;1.20;;
55989;SDS011;41875;55.806;38.082;2023-05-10T09:18:49;3.75;;;1.30;;
55989;SDS011;41875;55.806;38.082;2023-05-10T09:21:19;4.38;;;1.30;;
55989;SDS011;41875;55.806;38.082;2023-05-10T09:23:48;3.65;;;1.40;;
55989;SDS011;41875;55.806;38.082;2023-05-10T09:26:23;4.97;;;1.55;;
55989;SDS011;41875;55.806;38.082;2023-05-10T09:28:53;2.65;;;1.40;;
55989;SDS011;41875;55.806;38.082;2023-05-10T09:31:22;6.20;;;1.65;;
55989;SDS011;41875;55.806;38.082;2023-05-10T09:33:53;4.43;;;1.60;;
55989;SDS011;41875;55.806;38.082;2023-05-10T09:36:22;3.67;;;1.60;;
55989;SDS011;41875;55.806;38.082;2023-05-10T09:38:51;3.83;;;1.60;;
55989;SDS011;41875;55.806;38.082;2023-05-10T09:41:21;4.05;;;1.40;;
55989;SDS011;41875;55.806;38.082;2023-05-10T09:43:50;3.72;;;1.20;;
55989;SDS011;41875;55.806;38.082;2023-05-10T09:46:23;4.35;;;1.40;;
55989;SDS011;41875;55.806;38.082;2023-05-10T09:48:54;3.10;;;1.50;;
55989;SDS011;41875;55.806;38.082;2023-05-10T09:51:22;2.92;;;1.35;;
55989;SDS011;41875;55.806;38.082;2023-05-10T09:54:08;3.28;;;1.50;;
55989;SDS011;41875;55.806;38.082;2023-05-10T09:56:38;4.28;;;1.70;;
55989;SDS011;41875;55.806;38.082;2023-05-10T10:01:36;4.43;;;1.50;;
55989;SDS011;41875;55.806;38.082;2023-05-10T10:04:07;5.78;;;1.80;;
55989;SDS011;41875;55.806;38.082;2023-05-10T10:06:37;4.65;;;1.58;;
55989;SDS011;41875;55.806;38.082;2023-05-10T10:09:06;4.43;;;1.52;;
55989;SDS011;41875;55.806;38.082;2023-05-10T10:11:36;4.47;;;2.00;;
55989;SDS011;41875;55.806;38.082;2023-05-10T10:14:06;5.20;;;2.22;;
55989;SDS011;41875;55.806;38.082;2023-05-10T10:16:34;4.57;;;1.75;;
55989;SDS011;41875;55.806;38.082;2023-05-10T10:19:19;5.57;;;1.80;;
55989;SDS011;41875;55.806;38.082;2023-05-10T10:21:48;4.45;;;1.90;;
55989;SDS011;41875;55.806;38.082;2023-05-10T10:24:17;5.03;;;1.70;;
55989;SDS011;41875;55.806;38.082;2023-05-10T10:26:46;6.28;;;2.00;;
55989;SDS011;41875;55.806;38.082;2023-05-10T10:29:18;4.22;;;2.08;;
55989;SDS011;41875;55.806;38.082;2023-05-10T10:31:53;3.75;;;1.75;;
55989;SDS011;41875;55.806;38.082;2023-05-10T10:34:30;5.90;;;1.80;;
55989;SDS011;41875;55.806;38.082;2023-05-10T10:37:03;4.30;;;1.67;;
55989;SDS011;41875;55.806;38.082;2023-05-10T10:39:33;5.47;;;1.90;;
55989;SDS011;41875;55.806;38.082;2023-05-10T10:42:04;3.70;;;1.65;;
55989;SDS011;41875;55.806;38.082;2023-05-10T10:44:36;5.10;;;1.80;;
55989;SDS011;41875;55.806;38.082;2023-05-10T10:47:22;3.15;;;1.48;;
55989;SDS011;41875;55.806;38.082;2023-05-10T10:50:03;4.28;;;1.60;;
55989;SDS011;41875;55.806;38.082;2023-05-10T10:52:34;3.53;;;1.90;;
55989;SDS011;41875;55.806;38.082;2023-05-10T10:55:03;7.30;;;1.70;;
55989;SDS011;41875;55.806;38.082;2023-05-10T10:57:43;4.47;;;1.92;;
55989;SDS011;41875;55.806;38.082;2023-05-10T11:00:21;3.40;;;1.83;;
55989;SDS011;41875;55.806;38.082;2023-05-10T11:02:58;7.10;;;2.20;;
55989;SDS011;41875;55.806;38.082;2023-05-10T11:08:17;7.88;;;1.88;;
55989;SDS011;41875;55.806;38.082;2023-05-10T11:10:49;4.63;;;1.50;;
55989;SDS011;41875;55.806;38.082;2023-05-10T11:13:27;5.53;;;1.65;;
55989;SDS011;41875;55.806;38.082;2023-05-10T11:15:57;4.63;;;1.80;;
55989;SDS011;41875;55.806;38.082;2023-05-10T11:18:27;4.07;;;1.67;;
55989;SDS011;41875;55.806;38.082;2023-05-10T11:20:59;4.72;;;1.83;;
55989;SDS011;41875;55.806;38.082;2023-05-10T11:23:30;2.95;;;1.65;;
55989;SDS011;41875;55.806;38.082;2023-05-10T11:26:00;3.55;;;1.75;;
55989;SDS011;41875;55.806;38.082;2023-05-10T11:30:57;4.85;;;1.92;;
55989;SDS011;41875;55.806;38.082;2023-05-10T11:33:26;3.50;;;1.60;;
55989;SDS011;41875;55.806;38.082;2023-05-10T11:35:54;6.13;;;2.13;;
55989;SDS011;41875;55.806;38.082;2023-05-10T11:38:24;3.72;;;1.55;;
55989;SDS011;41875;55.806;38.082;2023-05-10T11:40:52;5.15;;;1.50;;
55989;SDS011;41875;55.806;38.082;2023-05-10T11:45:52;7.90;;;2.58;;
55989;SDS011;41875;55.806;38.082;2023-05-10T11:48:20;6.63;;;2.33;;
55989;SDS011;41875;55.806;38.082;2023-05-10T11:50:50;2.95;;;1.40;;
55989;SDS011;41875;55.806;38.082;2023-05-10T11:55:51;5.57;;;1.98;;
55989;SDS011;41875;55.806;38.082;2023-05-10T11:58:20;5.63;;;1.83;;
55989;SDS011;41875;55.806;38.082;2023-05-10T12:00:50;7.03;;;1.83;;
55989;SDS011;41875;55.806;38.082;2023-05-10T12:03:18;4.80;;;2.03;;
55989;SDS011;41875;55.806;38.082;2023-05-10T12:08:19;5.40;;;2.13;;
55989;SDS011;41875;55.806;38.082;2023-05-10T12:10:49;5.03;;;1.67;;
55989;SDS011;41875;55.806;38.082;2023-05-10T12:13:20;2.95;;;1.60;;
55989;SDS011;41875;55.806;38.082;2023-05-10T12:15:49;5.25;;;1.65;;
55989;SDS011;41875;55.806;38.082;2023-05-10T12:18:22;5.43;;;2.03;;
55989;SDS011;41875;55.806;38.082;2023-05-10T12:20:51;3.20;;;1.50;;
55989;SDS011;41875;55.806;38.082;2023-05-10T12:23:20;4.53;;;1.65;;
55989;SDS011;41875;55.806;38.082;2023-05-10T12:25:49;4.63;;;1.67;;
55989;SDS011;41875;55.806;38.082;2023-05-10T12:28:22;4.95;;;1.52;;
55989;SDS011;41875;55.806;38.082;2023-05-10T12:30:50;5.63;;;1.70;;
55989;SDS011;41875;55.806;38.082;2023-05-10T12:33:21;5.47;;;1.85;;
55989;SDS011;41875;55.806;38.082;2023-05-10T12:35:50;3.45;;;1.63;;
55989;SDS011;41875;55.806;38.082;2023-05-10T12:38:27;5.80;;;1.80;;
55989;SDS011;41875;55.806;38.082;2023-05-10T12:40:57;5.38;;;1.65;;
55989;SDS011;41875;55.806;38.082;2023-05-10T12:43:28;5.70;;;1.80;;
55989;SDS011;41875;55.806;38.082;2023-05-10T12:45:57;4.40;;;1.70;;
55989;SDS011;41875;55.806;38.082;2023-05-10T12:48:26;5.88;;;1.75;;
55989;SDS011;41875;55.806;38.082;2023-05-10T12:50:55;3.65;;;1.70;;
55989;SDS011;41875;55.806;38.082;2023-05-10T12:53:23;3.67;;;1.50;;
55989;SDS011;41875;55.806;38.082;2023-05-10T12:58:21;4.15;;;1.52;;
55989;SDS011;41875;55.806;38.082;2023-05-10T13:01:04;4.25;;;1.50;;
55989;SDS011;41875;55.806;38.082;2023-05-10T13:03:33;4.05;;;1.70;;
55989;SDS011;41875;55.806;38.082;2023-05-10T13:06:01;5.07;;;1.90;;
55989;SDS011;41875;55.806;38.082;2023-05-10T13:08:30;4.10;;;1.80;;
55989;SDS011;41875;55.806;38.082;2023-05-10T13:11:00;4.95;;;1.88;;
55989;SDS011;41875;55.806;38.082;2023-05-10T13:13:30;5.35;;;2.17;;
55989;SDS011;41875;55.806;38.082;2023-05-10T13:16:01;6.32;;;2.00;;
55989;SDS011;41875;55.806;38.082;2023-05-10T13:18:31;6.47;;;2.15;;
55989;SDS011;41875;55.806;38.082;2023-05-10T13:20:59;6.10;;;2.00;;
55989;SDS011;41875;55.806;38.082;2023-05-10T13:23:30;5.68;;;2.00;;
55989;SDS011;41875;55.806;38.082;2023-05-10T13:25:59;3.90;;;1.88;;
55989;SDS011;41875;55.806;38.082;2023-05-10T13:28:27;7.82;;;1.80;;
55989;SDS011;41875;55.806;38.082;2023-05-10T13:30:56;3.45;;;1.65;;
55989;SDS011;41875;55.806;38.082;2023-05-10T13:33:28;5.15;;;2.03;;
55989;SDS011;41875;55.806;38.082;2023-05-10T13:35:56;4.38;;;1.63;;
55989;SDS011;41875;55.806;38.082;2023-05-10T13:38:25;3.40;;;1.75;;
55989;SDS011;41875;55.806;38.082;2023-05-10T13:40:53;6.82;;;1.90;;
55989;SDS011;41875;55.806;38.082;2023-05-10T13:43:22;4.05;;;1.55;;
55989;SDS011;41875;55.806;38.082;2023-05-10T13:45:51;4.93;;;2.08;;
55989;SDS011;41875;55.806;38.082;2023-05-10T13:48:20;4.57;;;1.95;;
55989;SDS011;41875;55.806;38.082;2023-05-10T13:50:49;5.45;;;1.90;;
55989;SDS011;41875;55.806;38.082;2023-05-10T13:53:18;5.13;;;2.00;;
55989;SDS011;41875;55.806;38.082;2023-05-10T13:55:46;4.63;;;1.90;;
55989;SDS011;41875;55.806;38.082;2023-05-10T13:58:32;8.65;;;2.15;;
55989;SDS011;41875;55.806;38.082;2023-05-10T14:01:02;3.30;;;1.70;;
55989;SDS011;41875;55.806;38.082;2023-05-10T14:03:31;4.90;;;1.98;;
55989;SDS011;41875;55.806;38.082;2023-05-10T14:08:30;6.78;;;2.10;;
55989;SDS011;41875;55.806;38.082;2023-05-10T14:10:58;5.47;;;2.08;;
55989;SDS011;41875;55.806;38.082;2023-05-10T14:13:27;6.55;;;2.03;;
55989;SDS011;41875;55.806;38.082;2023-05-10T14:15:55;4.15;;;1.77;;
55989;SDS011;41875;55.806;38.082;2023-05-10T14:18:25;5.15;;;1.95;;
55989;SDS011;41875;55.806;38.082;2023-05-10T14:20:54;4.47;;;1.65;;
55989;SDS011;41875;55.806;38.082;2023-05-10T14:25:52;4.28;;;1.92;;
55989;SDS011;41875;55.806;38.082;2023-05-10T14:28:21;4.60;;;1.60;;
55989;SDS011;41875;55.806;38.082;2023-05-10T14:30:50;3.25;;;1.42;;
55989;SDS011;41875;55.806;38.082;2023-05-10T14:33:18;5.43;;;1.60;;
55989;SDS011;41875;55.806;38.082;2023-05-10T14:35:47;5.63;;;1.60;;
55989;SDS011;41875;55.806;38.082;2023-05-10T14:38:16;4.80;;;1.60;;
55989;SDS011;41875;55.806;38.082;2023-05-10T14:40:46;5.43;;;1.90;;
55989;SDS011;41875;55.806;38.082;2023-05-10T14:43:14;4.53;;;1.70;;
55989;SDS011;41875;55.806;38.082;2023-05-10T14:45:43;4.32;;;1.75;;
55989;SDS011;41875;55.806;38.082;2023-05-10T14:48:12;5.65;;;1.85;;
55989;SDS011;41875;55.806;38.082;2023-05-10T14:50:42;3.50;;;1.63;;
55989;SDS011;41875;55.806;38.082;2023-05-10T14:53:11;5.93;;;2.00;;
55989;SDS011;41875;55.806;38.082;2023-05-10T14:55:39;4.40;;;1.70;;
55989;SDS011;41875;55.806;38.082;2023-05-10T14:58:10;3.70;;;1.70;;
55989;SDS011;41875;55.806;38.082;2023-05-10T15:00:38;3.28;;;1.50;;
55989;SDS011;41875;55.806;38.082;2023-05-10T15:05:36;5.47;;;1.90;;
55989;SDS011;41875;55.806;38.082;2023-05-10T15:08:05;4.88;;;1.58;;
55989;SDS011;41875;55.806;38.082;2023-05-10T15:10:33;6.30;;;1.80;;
55989;SDS011;41875;55.806;38.082;2023-05-10T15:13:03;4.45;;;1.67;;
55989;SDS011;41875;55.806;38.082;2023-05-10T15:15:33;3.65;;;1.58;;
55989;SDS011;41875;55.806;38.082;2023-05-10T15:18:01;4.22;;;1.58;;
55989;SDS011;41875;55.806;38.082;2023-05-10T15:20:31;3.85;;;1.75;;
55989;SDS011;41875;55.806;38.082;2023-05-10T15:22:59;6.10;;;1.45;;
55989;SDS011;41875;55.806;38.082;2023-05-10T15:25:30;5.97;;;1.80;;
55989;SDS011;41875;55.806;38.082;2023-05-10T15:28:01;5.00;;;1.60;;
55989;SDS011;41875;55.806;38.082;2023-05-10T15:30:30;3.90;;;1.60;;
55989;SDS011;41875;55.806;38.082;2023-05-10T15:33:00;2.33;;;1.48;;
55989;SDS011;41875;55.806;38.082;2023-05-10T15:35:29;4.35;;;1.80;;